createdAt,value
2022-09-15T00:01:32.131Z,1.05
2022-09-15T00:05:35.407Z,1.55
2022-09-15T00:09:38.656Z,0.93
2022-09-15T00:13:42.350Z,1.17
2022-09-15T00:17:50.658Z,1.10
2022-09-15T00:21:54.009Z,1.20
2022-09-15T00:25:57.025Z,1.48
2022-09-15T00:30:00.106Z,1.00
2022-09-15T00:34:05.101Z,1.00
2022-09-15T00:38:09.929Z,1.00
2022-09-15T00:42:16.768Z,1.10
2022-09-15T00:46:23.711Z,1.08
2022-09-15T00:50:28.320Z,1.10
2022-09-15T00:54:36.565Z,1.05
2022-09-15T00:58:44.426Z,0.77
2022-09-15T01:02:49.368Z,1.08
2022-09-15T01:06:58.405Z,0.90
2022-09-15T01:11:02.662Z,1.02
2022-09-15T01:15:06.704Z,0.85
2022-09-15T01:19:32.391Z,1.00
2022-09-15T01:24:08.135Z,1.05
2022-09-15T01:28:45.598Z,1.00
2022-09-15T01:33:07.753Z,1.10
2022-09-15T01:37:17.083Z,1.00
2022-09-15T01:41:26.950Z,1.10
2022-09-15T01:45:33.425Z,0.85
2022-09-15T01:49:45.920Z,1.10
2022-09-15T01:53:50.826Z,1.00
2022-09-15T01:57:53.986Z,1.20
2022-09-15T02:02:04.140Z,1.20
2022-09-15T02:06:14.688Z,1.00
2022-09-15T02:10:25.921Z,1.10
2022-09-15T02:14:43.204Z,1.00
2022-09-15T02:18:57.602Z,0.90
2022-09-15T02:23:08.268Z,1.00
2022-09-15T02:27:17.346Z,0.90
2022-09-15T02:31:24.101Z,1.00
2022-09-15T02:35:29.608Z,1.10
2022-09-15T02:39:38.291Z,1.05
2022-09-15T02:43:46.455Z,1.10
2022-09-15T02:47:50.267Z,1.08
2022-09-15T02:51:53.486Z,1.10
2022-09-15T02:55:58.197Z,1.00
2022-09-15T03:00:17.303Z,0.90
2022-09-15T03:04:20.533Z,1.00
2022-09-15T03:08:23.839Z,0.80
2022-09-15T03:12:28.452Z,1.00
2022-09-15T03:16:34.712Z,1.00
2022-09-15T03:20:37.769Z,0.77
2022-09-15T03:24:42.421Z,1.17
2022-09-15T03:28:47.000Z,1.02
2022-09-15T03:32:50.100Z,0.80
2022-09-15T03:36:53.149Z,0.90
2022-09-15T03:41:01.575Z,1.10
2022-09-15T03:45:06.851Z,1.30
2022-09-15T03:49:09.865Z,0.75
2022-09-15T03:53:12.964Z,1.05
2022-09-15T03:57:15.981Z,1.00
2022-09-15T04:01:21.450Z,0.93
2022-09-15T04:05:24.496Z,1.00
2022-09-15T04:09:27.997Z,0.98
2022-09-15T04:13:30.967Z,0.90
2022-09-15T04:17:35.386Z,1.05
2022-09-15T04:21:38.552Z,1.10
2022-09-15T04:25:41.713Z,1.10
2022-09-15T04:29:44.954Z,1.20
2022-09-15T04:33:49.747Z,0.98
2022-09-15T04:37:55.533Z,1.00
2022-09-15T04:41:58.748Z,1.20
2022-09-15T04:46:02.263Z,1.10
2022-09-15T04:50:07.737Z,1.13
2022-09-15T04:54:13.719Z,1.20
2022-09-15T04:58:16.944Z,1.20
2022-09-15T05:02:20.016Z,1.13
2022-09-15T05:06:27.210Z,0.90
2022-09-15T05:10:37.559Z,1.05
2022-09-15T05:14:40.543Z,1.10
2022-09-15T05:18:45.248Z,1.10
2022-09-15T05:22:50.017Z,1.00
2022-09-15T05:26:53.155Z,1.10
2022-09-15T05:30:57.099Z,0.85
2022-09-15T05:35:00.183Z,0.82
2022-09-15T05:39:05.290Z,1.10
2022-09-15T05:43:08.347Z,1.10
2022-09-15T05:47:11.336Z,0.80
2022-09-15T05:51:15.303Z,0.90
2022-09-15T05:55:20.048Z,0.98
2022-09-15T05:59:23.511Z,1.02
2022-09-15T06:03:30.760Z,1.08
2022-09-15T06:07:34.196Z,0.80
2022-09-15T06:11:38.658Z,1.08
2022-09-15T06:15:42.012Z,1.00
2022-09-15T06:19:45.723Z,1.02
2022-09-15T06:23:54.658Z,1.00
2022-09-15T06:27:59.115Z,0.73
2022-09-15T06:32:03.064Z,0.82
2022-09-15T06:36:07.460Z,1.40
2022-09-15T06:40:11.348Z,1.10
2022-09-15T06:44:15.798Z,1.35
2022-09-15T06:48:24.884Z,0.98
2022-09-15T06:52:28.279Z,0.75
2022-09-15T06:56:35.734Z,0.80
2022-09-15T07:00:42.316Z,1.00
2022-09-15T07:04:45.312Z,1.20
2022-09-15T07:08:49.639Z,0.88
2022-09-15T07:12:52.581Z,0.90
2022-09-15T07:16:56.955Z,1.00
2022-09-15T07:21:01.088Z,1.00
2022-09-15T07:25:04.134Z,0.88
2022-09-15T07:29:08.081Z,0.80
2022-09-15T07:33:14.519Z,0.85
2022-09-15T07:37:17.558Z,0.88
2022-09-15T07:41:22.362Z,1.00
2022-09-15T07:45:25.608Z,0.93
2022-09-15T07:49:31.028Z,0.70
2022-09-15T07:53:34.297Z,0.80
2022-09-15T07:57:37.610Z,0.80
2022-09-15T08:01:40.805Z,0.98
2022-09-15T08:05:45.942Z,0.95
2022-09-15T08:09:49.147Z,1.30
2022-09-15T08:13:53.316Z,0.93
2022-09-15T08:18:20.031Z,0.88
2022-09-15T08:22:25.064Z,0.80
2022-09-15T08:26:30.441Z,0.90
2022-09-15T08:30:33.524Z,0.80
2022-09-15T08:34:36.873Z,0.70
2022-09-15T08:38:42.924Z,0.70
2022-09-15T08:42:50.214Z,0.60
2022-09-15T08:46:57.808Z,0.80
2022-09-15T08:51:06.799Z,0.98
2022-09-15T08:55:16.995Z,0.98
2022-09-15T08:59:21.761Z,1.10
2022-09-15T09:03:39.612Z,0.80
2022-09-15T09:07:56.827Z,0.90
2022-09-15T09:12:15.322Z,0.90
2022-09-15T09:16:38.168Z,1.00
2022-09-15T09:20:50.488Z,0.70
2022-09-15T09:24:56.360Z,1.00
2022-09-15T09:29:02.281Z,0.50
2022-09-15T09:33:20.086Z,0.80
2022-09-15T09:37:23.963Z,0.77
2022-09-15T09:41:35.729Z,0.63
2022-09-15T09:45:40.171Z,0.90
2022-09-15T09:49:47.931Z,0.70
2022-09-15T09:53:54.866Z,0.73
2022-09-15T09:58:13.514Z,0.90
2022-09-15T10:02:20.631Z,0.85
2022-09-15T10:06:24.053Z,0.70
2022-09-15T10:10:32.492Z,0.77
2022-09-15T10:14:37.745Z,0.70
2022-09-15T10:18:42.412Z,0.70
2022-09-15T10:22:45.704Z,0.70
2022-09-15T10:26:49.824Z,0.80
2022-09-15T10:31:05.338Z,0.70
2022-09-15T10:35:12.957Z,0.77
2022-09-15T10:39:29.023Z,0.80
2022-09-15T10:43:43.577Z,0.80
2022-09-15T10:48:04.073Z,0.85
2022-09-15T10:52:17.606Z,0.80
2022-09-15T10:56:28.951Z,0.63
2022-09-15T11:00:40.513Z,0.90
2022-09-15T11:05:05.952Z,0.55
2022-09-15T11:09:21.656Z,1.10
2022-09-15T11:13:30.805Z,0.80
2022-09-15T11:17:49.449Z,0.82
2022-09-15T11:21:57.088Z,0.60
2022-09-15T11:26:07.004Z,0.70
2022-09-15T11:30:18.555Z,0.70
2022-09-15T11:34:24.803Z,0.60
2022-09-15T11:38:36.710Z,0.77
2022-09-15T11:42:47.167Z,0.60
2022-09-15T11:47:01.972Z,0.60
2022-09-15T11:51:07.928Z,0.60
2022-09-15T11:55:21.142Z,0.80
2022-09-15T11:59:33.622Z,0.60
2022-09-15T12:03:41.337Z,0.50
2022-09-15T12:07:52.573Z,0.63
2022-09-15T12:11:58.286Z,0.50
2022-09-15T12:16:05.131Z,0.40
2022-09-15T12:20:18.717Z,0.47
2022-09-15T12:24:36.115Z,0.50
2022-09-15T12:28:42.535Z,0.60
2022-09-15T12:32:47.592Z,0.40
2022-09-15T12:36:53.234Z,0.70
2022-09-15T12:41:00.241Z,0.70
2022-09-15T12:45:06.070Z,0.80
2022-09-15T12:49:19.616Z,0.80
2022-09-15T12:53:26.130Z,0.70
2022-09-15T12:57:33.374Z,0.60
2022-09-15T13:01:49.604Z,0.75
2022-09-15T13:06:25.280Z,0.80
2022-09-15T13:10:36.686Z,0.70
2022-09-15T13:14:44.972Z,0.65
2022-09-15T13:18:49.666Z,0.88
2022-09-15T13:22:56.355Z,0.70
2022-09-15T13:27:03.295Z,0.90
2022-09-15T13:31:23.252Z,0.60
2022-09-15T13:35:50.099Z,0.68
2022-09-15T13:40:08.693Z,0.80
2022-09-15T13:45:01.533Z,0.90
2022-09-15T13:49:27.405Z,0.70
2022-09-15T13:53:48.839Z,0.95
2022-09-15T14:02:18.617Z,0.77
2022-09-15T14:06:27.444Z,0.90
2022-09-15T14:10:33.541Z,0.80
2022-09-15T14:14:40.049Z,0.70
2022-09-15T14:18:44.726Z,0.90
2022-09-15T14:22:51.568Z,0.75
2022-09-15T14:26:54.585Z,0.60
2022-09-15T14:30:57.892Z,0.75
2022-09-15T14:35:05.475Z,0.70
2022-09-15T14:39:21.538Z,0.82
2022-09-15T14:43:26.003Z,0.55
2022-09-15T14:47:35.502Z,0.70
2022-09-15T14:51:39.642Z,0.80
2022-09-15T14:55:51.560Z,0.77
2022-09-15T14:59:58.028Z,0.70
2022-09-15T15:04:09.994Z,0.82
2022-09-15T15:08:22.483Z,0.80
2022-09-15T15:12:29.948Z,0.80
2022-09-15T15:16:33.158Z,0.73
2022-09-15T15:20:36.415Z,0.68
2022-09-15T15:24:42.081Z,0.90
2022-09-15T15:28:46.569Z,1.00
2022-09-15T15:32:49.699Z,0.73
2022-09-15T15:36:53.511Z,0.75
2022-09-15T15:41:02.581Z,0.70
2022-09-15T15:45:24.128Z,0.80
2022-09-15T15:49:29.285Z,0.70
2022-09-15T15:53:32.268Z,0.70
2022-09-15T15:57:40.657Z,0.95
2022-09-15T16:01:52.228Z,0.80
2022-09-15T16:05:58.589Z,0.90
2022-09-15T16:10:02.623Z,1.00
2022-09-15T16:14:05.604Z,0.80
2022-09-15T16:18:10.313Z,0.70
2022-09-15T16:22:19.443Z,0.60
2022-09-15T16:26:25.376Z,0.63
2022-09-15T16:30:28.899Z,0.57
2022-09-15T16:34:33.576Z,0.50
2022-09-15T16:38:37.636Z,0.60
2022-09-15T16:42:43.179Z,0.52
2022-09-15T16:46:46.752Z,0.52
2022-09-15T16:55:23.308Z,0.50
2022-09-15T16:59:26.365Z,0.50
2022-09-15T17:03:29.431Z,0.40
2022-09-15T17:07:33.849Z,0.40
2022-09-15T17:11:41.896Z,0.50
2022-09-15T17:16:02.715Z,0.57
2022-09-15T17:20:06.943Z,0.57
2022-09-15T17:24:12.073Z,0.63
2022-09-15T17:28:15.028Z,0.60
2022-09-15T17:32:18.064Z,0.50
2022-09-15T17:36:21.257Z,0.45
2022-09-15T17:40:25.722Z,0.60
2022-09-15T17:44:28.687Z,0.50
2022-09-15T17:48:31.893Z,0.50
2022-09-15T17:52:35.086Z,0.60
2022-09-15T17:56:39.485Z,0.70
2022-09-15T18:00:43.620Z,0.60
2022-09-15T18:04:47.027Z,0.80
2022-09-15T18:08:50.346Z,0.80
2022-09-15T18:12:55.891Z,0.60
2022-09-15T18:16:58.916Z,0.70
2022-09-15T18:21:02.443Z,0.73
2022-09-15T18:25:05.940Z,0.95
2022-09-15T18:29:10.320Z,0.70
2022-09-15T18:33:17.094Z,0.80
2022-09-15T18:37:21.222Z,0.93
2022-09-15T18:41:24.206Z,0.80
2022-09-15T18:45:28.568Z,0.70
2022-09-15T18:49:31.806Z,0.75
2022-09-15T18:53:36.544Z,0.90
2022-09-15T18:57:41.651Z,0.90
2022-09-15T19:01:46.336Z,0.90
2022-09-15T19:05:50.561Z,1.00
2022-09-15T19:09:56.452Z,0.70
2022-09-15T19:14:00.006Z,0.80
2022-09-15T19:18:05.021Z,0.85
2022-09-15T19:22:09.315Z,0.90
2022-09-15T19:26:15.795Z,0.90
2022-09-15T19:30:19.042Z,0.82
2022-09-15T19:34:23.651Z,1.00
2022-09-15T19:38:26.946Z,0.80
2022-09-15T19:42:30.238Z,0.75
2022-09-15T19:46:33.368Z,1.02
2022-09-15T19:50:39.494Z,0.70
2022-09-15T19:54:43.422Z,0.73
2022-09-15T19:58:47.422Z,1.00
2022-09-15T20:02:50.574Z,1.00
2022-09-15T20:06:55.318Z,0.80
2022-09-15T20:10:58.632Z,0.80
2022-09-15T20:15:01.850Z,1.10
2022-09-15T20:19:05.563Z,0.80
2022-09-15T20:23:10.119Z,0.80
2022-09-15T20:27:13.345Z,0.70
2022-09-15T20:31:19.163Z,0.60
2022-09-15T20:35:22.174Z,0.80
2022-09-15T20:39:26.586Z,0.68
2022-09-15T20:43:29.991Z,0.60
2022-09-15T20:47:33.275Z,0.80
2022-09-15T20:51:36.285Z,0.70
2022-09-15T20:55:40.611Z,0.50
2022-09-15T20:59:43.779Z,0.70
2022-09-15T21:03:47.823Z,0.80
2022-09-15T21:07:52.075Z,0.90
2022-09-15T21:11:56.714Z,0.70
2022-09-15T21:16:02.337Z,0.68
2022-09-15T21:20:06.326Z,0.50
2022-09-15T21:24:09.939Z,0.70
2022-09-15T21:28:14.575Z,0.90
2022-09-15T21:32:17.553Z,1.15
2022-09-15T21:36:22.514Z,1.65
2022-09-15T21:40:25.576Z,2.20
2022-09-15T21:44:30.002Z,1.75
2022-09-15T21:48:33.908Z,2.10
2022-09-15T21:52:37.155Z,1.92
2022-09-15T21:56:41.080Z,1.65
2022-09-15T22:00:45.479Z,1.90
2022-09-15T22:04:48.494Z,1.60
2022-09-15T22:08:51.535Z,1.77
2022-09-15T22:12:54.514Z,2.00
2022-09-15T22:16:59.087Z,1.80
2022-09-15T22:21:07.962Z,2.17
2022-09-15T22:25:11.222Z,1.70
2022-09-15T22:29:14.984Z,1.83
2022-09-15T22:33:19.602Z,2.10
2022-09-15T22:37:27.019Z,2.00
2022-09-15T22:41:29.991Z,1.60
2022-09-15T22:45:33.267Z,1.77
2022-09-15T22:49:37.836Z,2.20
2022-09-15T22:53:40.824Z,1.73
2022-09-15T22:57:43.841Z,1.95
2022-09-15T23:01:47.268Z,1.85
2022-09-15T23:05:59.160Z,2.15
2022-09-15T23:10:02.406Z,1.80
2022-09-15T23:14:05.577Z,1.90
2022-09-15T23:18:08.600Z,1.80
2022-09-15T23:22:12.948Z,1.90
2022-09-15T23:26:17.743Z,1.50
2022-09-15T23:30:20.729Z,1.58
2022-09-15T23:34:24.114Z,1.75
2022-09-15T23:38:29.245Z,1.52
2022-09-15T23:42:32.295Z,1.75
2022-09-15T23:46:35.780Z,1.80
2022-09-15T23:50:40.009Z,1.73
2022-09-15T23:54:44.432Z,1.70
2022-09-15T23:58:47.512Z,1.67
